Terminal Aerodrome Forecast
Issued by NWS

Home | Current Version | Previous Version | Text Only | Print | Product List | Glossary On
Versions: 1 2 3 4 5 6 7 8 9 10 11 12 13 14 15 16 17 18 19 20 21 22 23 24 25 26 27 28 29 30 31 32 33 34
719
FTUS43 KGLD 151120
TAFMCK
TAF
KMCK 151120Z 1512/1612 31010KT P6SM OVC150
     FM152000 34020G26KT P6SM BKN050 OVC120
      TEMPO 1600/1604 01025G32KT BKN020 OVC030
     FM161000 36010KT P6SM BKN080=

USA.gov is the U.S. government's official web portal to all federal, state and local government web resources and services.